sensor_id;sensor_type;location;lat;lon;timestamp;P1;durP1;ratioP1;P2;durP2;ratioP2
50267;SDS011;36153;50.960;6.220;2023-06-14T00:00:34;10.93;;;6.32;;
50267;SDS011;36153;50.960;6.220;2023-06-14T00:03:35;7.80;;;6.53;;
50267;SDS011;36153;50.960;6.220;2023-06-14T00:06:35;7.90;;;5.82;;
50267;SDS011;36153;50.960;6.220;2023-06-14T00:09:35;6.85;;;5.80;;
50267;SDS011;36153;50.960;6.220;2023-06-14T00:12:36;7.63;;;6.65;;
50267;SDS011;36153;50.960;6.220;2023-06-14T00:15:37;7.25;;;6.45;;
50267;SDS011;36153;50.960;6.220;2023-06-14T00:18:37;7.50;;;6.22;;
50267;SDS011;36153;50.960;6.220;2023-06-14T00:21:38;6.65;;;5.50;;
50267;SDS011;36153;50.960;6.220;2023-06-14T00:24:39;11.75;;;6.70;;
50267;SDS011;36153;50.960;6.220;2023-06-14T00:27:39;12.30;;;5.80;;
50267;SDS011;36153;50.960;6.220;2023-06-14T00:30:39;7.20;;;6.20;;
50267;SDS011;36153;50.960;6.220;2023-06-14T00:33:40;9.88;;;6.13;;
50267;SDS011;36153;50.960;6.220;2023-06-14T00:36:42;13.65;;;6.65;;
50267;SDS011;36153;50.960;6.220;2023-06-14T00:39:43;9.02;;;6.15;;
50267;SDS011;36153;50.960;6.220;2023-06-14T00:42:43;7.22;;;5.82;;
50267;SDS011;36153;50.960;6.220;2023-06-14T00:45:44;6.85;;;6.05;;
50267;SDS011;36153;50.960;6.220;2023-06-14T00:48:45;6.60;;;5.85;;
50267;SDS011;36153;50.960;6.220;2023-06-14T00:51:47;9.65;;;6.10;;
50267;SDS011;36153;50.960;6.220;2023-06-14T00:54:47;6.97;;;5.97;;
50267;SDS011;36153;50.960;6.220;2023-06-14T00:57:48;8.30;;;6.22;;
50267;SDS011;36153;50.960;6.220;2023-06-14T01:00:49;6.97;;;6.30;;
50267;SDS011;36153;50.960;6.220;2023-06-14T01:03:51;7.53;;;6.43;;
50267;SDS011;36153;50.960;6.220;2023-06-14T01:13:35;9.60;;;5.70;;
50267;SDS011;36153;50.960;6.220;2023-06-14T01:16:37;8.18;;;5.60;;
50267;SDS011;36153;50.960;6.220;2023-06-14T01:19:39;6.45;;;5.75;;
50267;SDS011;36153;50.960;6.220;2023-06-14T01:22:54;6.60;;;5.32;;
50267;SDS011;36153;50.960;6.220;2023-06-14T01:25:55;7.63;;;5.78;;
50267;SDS011;36153;50.960;6.220;2023-06-14T01:28:55;6.97;;;5.88;;
50267;SDS011;36153;50.960;6.220;2023-06-14T01:31:58;6.93;;;6.22;;
50267;SDS011;36153;50.960;6.220;2023-06-14T01:35:00;6.88;;;6.18;;
50267;SDS011;36153;50.960;6.220;2023-06-14T01:38:01;8.77;;;5.85;;
50267;SDS011;36153;50.960;6.220;2023-06-14T01:41:03;9.00;;;5.80;;
50267;SDS011;36153;50.960;6.220;2023-06-14T01:44:04;9.70;;;5.65;;
50267;SDS011;36153;50.960;6.220;2023-06-14T01:47:06;6.50;;;5.78;;
50267;SDS011;36153;50.960;6.220;2023-06-14T01:50:07;9.90;;;6.80;;
50267;SDS011;36153;50.960;6.220;2023-06-14T01:53:08;7.80;;;6.05;;
50267;SDS011;36153;50.960;6.220;2023-06-14T01:56:09;7.95;;;6.78;;
50267;SDS011;36153;50.960;6.220;2023-06-14T01:59:10;9.05;;;6.80;;
50267;SDS011;36153;50.960;6.220;2023-06-14T02:02:10;7.18;;;6.47;;
50267;SDS011;36153;50.960;6.220;2023-06-14T02:05:10;10.50;;;6.25;;
50267;SDS011;36153;50.960;6.220;2023-06-14T02:08:11;8.88;;;6.55;;
50267;SDS011;36153;50.960;6.220;2023-06-14T02:11:11;8.00;;;7.20;;
50267;SDS011;36153;50.960;6.220;2023-06-14T02:14:12;8.05;;;6.85;;
50267;SDS011;36153;50.960;6.220;2023-06-14T02:17:12;10.20;;;7.20;;
50267;SDS011;36153;50.960;6.220;2023-06-14T02:20:13;9.07;;;5.97;;
50267;SDS011;36153;50.960;6.220;2023-06-14T02:23:13;11.25;;;6.57;;
50267;SDS011;36153;50.960;6.220;2023-06-14T02:26:13;7.72;;;6.20;;
50267;SDS011;36153;50.960;6.220;2023-06-14T02:29:14;7.25;;;6.15;;
50267;SDS011;36153;50.960;6.220;2023-06-14T02:32:15;7.32;;;6.05;;
50267;SDS011;36153;50.960;6.220;2023-06-14T02:35:15;11.35;;;6.95;;
50267;SDS011;36153;50.960;6.220;2023-06-14T02:38:15;10.57;;;7.72;;
50267;SDS011;36153;50.960;6.220;2023-06-14T02:41:16;8.02;;;6.90;;
50267;SDS011;36153;50.960;6.220;2023-06-14T02:44:19;7.05;;;6.05;;
50267;SDS011;36153;50.960;6.220;2023-06-14T02:47:23;8.93;;;6.78;;
50267;SDS011;36153;50.960;6.220;2023-06-14T02:50:24;10.68;;;6.18;;
50267;SDS011;36153;50.960;6.220;2023-06-14T02:53:25;8.15;;;6.18;;
50267;SDS011;36153;50.960;6.220;2023-06-14T02:56:26;8.27;;;6.10;;
50267;SDS011;36153;50.960;6.220;2023-06-14T02:59:27;10.43;;;6.28;;
50267;SDS011;36153;50.960;6.220;2023-06-14T03:02:28;11.93;;;6.78;;
50267;SDS011;36153;50.960;6.220;2023-06-14T03:05:28;10.68;;;6.22;;
50267;SDS011;36153;50.960;6.220;2023-06-14T03:08:28;8.20;;;5.97;;
50267;SDS011;36153;50.960;6.220;2023-06-14T03:11:30;10.30;;;6.78;;
50267;SDS011;36153;50.960;6.220;2023-06-14T03:14:31;12.18;;;6.68;;
50267;SDS011;36153;50.960;6.220;2023-06-14T03:17:32;38.72;;;7.47;;
50267;SDS011;36153;50.960;6.220;2023-06-14T03:20:33;24.77;;;8.05;;
50267;SDS011;36153;50.960;6.220;2023-06-14T03:23:33;14.55;;;7.63;;
50267;SDS011;36153;50.960;6.220;2023-06-14T03:26:34;16.05;;;6.88;;
50267;SDS011;36153;50.960;6.220;2023-06-14T03:29:34;15.35;;;7.20;;
50267;SDS011;36153;50.960;6.220;2023-06-14T03:32:34;16.38;;;7.70;;
50267;SDS011;36153;50.960;6.220;2023-06-14T03:35:35;21.33;;;7.63;;
50267;SDS011;36153;50.960;6.220;2023-06-14T03:38:35;29.23;;;8.90;;
50267;SDS011;36153;50.960;6.220;2023-06-14T03:41:36;24.08;;;7.80;;
50267;SDS011;36153;50.960;6.220;2023-06-14T03:44:36;22.35;;;8.35;;
50267;SDS011;36153;50.960;6.220;2023-06-14T03:47:37;8.80;;;6.63;;
50267;SDS011;36153;50.960;6.220;2023-06-14T03:50:37;13.32;;;7.07;;
50267;SDS011;36153;50.960;6.220;2023-06-14T03:53:40;12.77;;;7.03;;
50267;SDS011;36153;50.960;6.220;2023-06-14T03:56:40;7.10;;;6.00;;
50267;SDS011;36153;50.960;6.220;2023-06-14T03:59:41;9.25;;;6.85;;
50267;SDS011;36153;50.960;6.220;2023-06-14T04:02:41;9.23;;;6.00;;
50267;SDS011;36153;50.960;6.220;2023-06-14T04:05:42;8.77;;;6.05;;
50267;SDS011;36153;50.960;6.220;2023-06-14T04:08:42;10.77;;;6.65;;
50267;SDS011;36153;50.960;6.220;2023-06-14T04:11:42;8.60;;;6.68;;
50267;SDS011;36153;50.960;6.220;2023-06-14T04:14:43;8.07;;;6.95;;
50267;SDS011;36153;50.960;6.220;2023-06-14T04:17:43;10.20;;;6.85;;
50267;SDS011;36153;50.960;6.220;2023-06-14T04:20:43;10.73;;;6.80;;
50267;SDS011;36153;50.960;6.220;2023-06-14T04:23:44;10.77;;;6.28;;
50267;SDS011;36153;50.960;6.220;2023-06-14T04:26:45;11.75;;;6.90;;
50267;SDS011;36153;50.960;6.220;2023-06-14T04:29:47;10.93;;;6.50;;
50267;SDS011;36153;50.960;6.220;2023-06-14T04:32:53;8.50;;;7.00;;
50267;SDS011;36153;50.960;6.220;2023-06-14T04:35:55;13.45;;;7.72;;
50267;SDS011;36153;50.960;6.220;2023-06-14T04:38:56;8.40;;;6.93;;
50267;SDS011;36153;50.960;6.220;2023-06-14T04:41:56;10.57;;;6.95;;
50267;SDS011;36153;50.960;6.220;2023-06-14T04:44:57;11.63;;;6.82;;
50267;SDS011;36153;50.960;6.220;2023-06-14T04:48:00;11.45;;;6.63;;
50267;SDS011;36153;50.960;6.220;2023-06-14T04:54:03;8.00;;;5.80;;
50267;SDS011;36153;50.960;6.220;2023-06-14T04:57:04;9.75;;;6.50;;
50267;SDS011;36153;50.960;6.220;2023-06-14T05:00:05;7.53;;;5.15;;
50267;SDS011;36153;50.960;6.220;2023-06-14T05:03:06;8.45;;;5.88;;
50267;SDS011;36153;50.960;6.220;2023-06-14T05:06:06;8.07;;;5.20;;
50267;SDS011;36153;50.960;6.220;2023-06-14T05:09:07;11.65;;;5.80;;
50267;SDS011;36153;50.960;6.220;2023-06-14T05:12:07;10.45;;;6.43;;
50267;SDS011;36153;50.960;6.220;2023-06-14T05:15:08;11.50;;;6.10;;
50267;SDS011;36153;50.960;6.220;2023-06-14T05:18:08;10.27;;;6.65;;
50267;SDS011;36153;50.960;6.220;2023-06-14T05:21:09;9.85;;;5.97;;
50267;SDS011;36153;50.960;6.220;2023-06-14T05:24:11;11.25;;;6.53;;
50267;SDS011;36153;50.960;6.220;2023-06-14T05:27:11;9.82;;;6.10;;
50267;SDS011;36153;50.960;6.220;2023-06-14T05:30:13;14.50;;;6.63;;
50267;SDS011;36153;50.960;6.220;2023-06-14T05:33:14;8.85;;;5.85;;
50267;SDS011;36153;50.960;6.220;2023-06-14T05:36:14;8.75;;;6.07;;
50267;SDS011;36153;50.960;6.220;2023-06-14T05:39:15;8.30;;;6.15;;
50267;SDS011;36153;50.960;6.220;2023-06-14T05:42:15;11.85;;;6.28;;
50267;SDS011;36153;50.960;6.220;2023-06-14T05:45:16;7.43;;;5.82;;
50267;SDS011;36153;50.960;6.220;2023-06-14T05:48:16;11.48;;;5.88;;
50267;SDS011;36153;50.960;6.220;2023-06-14T05:51:17;7.93;;;5.57;;
50267;SDS011;36153;50.960;6.220;2023-06-14T05:54:19;7.32;;;5.30;;
50267;SDS011;36153;50.960;6.220;2023-06-14T05:57:19;7.80;;;5.57;;
50267;SDS011;36153;50.960;6.220;2023-06-14T06:00:19;10.13;;;5.32;;
50267;SDS011;36153;50.960;6.220;2023-06-14T06:03:20;7.22;;;5.25;;
50267;SDS011;36153;50.960;6.220;2023-06-14T06:06:21;9.20;;;5.90;;
50267;SDS011;36153;50.960;6.220;2023-06-14T06:09:21;6.30;;;4.57;;
50267;SDS011;36153;50.960;6.220;2023-06-14T06:12:21;7.55;;;5.03;;
50267;SDS011;36153;50.960;6.220;2023-06-14T06:15:22;5.97;;;4.50;;
50267;SDS011;36153;50.960;6.220;2023-06-14T06:18:22;5.50;;;4.53;;
50267;SDS011;36153;50.960;6.220;2023-06-14T06:21:22;6.60;;;4.57;;
50267;SDS011;36153;50.960;6.220;2023-06-14T06:24:23;6.43;;;4.10;;
50267;SDS011;36153;50.960;6.220;2023-06-14T06:27:23;6.15;;;4.15;;
50267;SDS011;36153;50.960;6.220;2023-06-14T06:30:23;6.60;;;4.15;;
50267;SDS011;36153;50.960;6.220;2023-06-14T06:33:24;6.90;;;4.95;;
50267;SDS011;36153;50.960;6.220;2023-06-14T06:36:25;5.20;;;4.00;;
50267;SDS011;36153;50.960;6.220;2023-06-14T06:39:25;5.82;;;4.40;;
50267;SDS011;36153;50.960;6.220;2023-06-14T06:42:26;9.75;;;4.70;;
50267;SDS011;36153;50.960;6.220;2023-06-14T06:45:26;6.05;;;4.20;;
50267;SDS011;36153;50.960;6.220;2023-06-14T06:48:27;7.05;;;4.72;;
50267;SDS011;36153;50.960;6.220;2023-06-14T06:51:27;5.47;;;3.97;;
50267;SDS011;36153;50.960;6.220;2023-06-14T06:54:28;5.75;;;3.85;;
50267;SDS011;36153;50.960;6.220;2023-06-14T06:57:28;8.63;;;4.28;;
50267;SDS011;36153;50.960;6.220;2023-06-14T07:00:32;6.72;;;4.00;;
50267;SDS011;36153;50.960;6.220;2023-06-14T07:03:32;9.13;;;4.82;;
50267;SDS011;36153;50.960;6.220;2023-06-14T07:06:32;6.03;;;4.18;;
50267;SDS011;36153;50.960;6.220;2023-06-14T07:09:33;5.97;;;4.10;;
50267;SDS011;36153;50.960;6.220;2023-06-14T07:12:33;6.28;;;4.18;;
50267;SDS011;36153;50.960;6.220;2023-06-14T07:15:36;4.78;;;4.22;;
50267;SDS011;36153;50.960;6.220;2023-06-14T07:18:36;4.85;;;4.07;;
50267;SDS011;36153;50.960;6.220;2023-06-14T07:21:37;8.52;;;4.40;;
50267;SDS011;36153;50.960;6.220;2023-06-14T07:24:38;7.63;;;4.57;;
50267;SDS011;36153;50.960;6.220;2023-06-14T07:27:40;7.88;;;4.38;;
50267;SDS011;36153;50.960;6.220;2023-06-14T07:30:41;6.30;;;4.07;;
50267;SDS011;36153;50.960;6.220;2023-06-14T07:33:42;6.22;;;3.90;;
50267;SDS011;36153;50.960;6.220;2023-06-14T07:36:42;5.80;;;3.60;;
50267;SDS011;36153;50.960;6.220;2023-06-14T07:39:44;4.88;;;4.03;;
50267;SDS011;36153;50.960;6.220;2023-06-14T07:42:45;4.10;;;3.30;;
50267;SDS011;36153;50.960;6.220;2023-06-14T07:45:45;7.13;;;3.78;;
50267;SDS011;36153;50.960;6.220;2023-06-14T07:48:46;3.85;;;3.42;;
50267;SDS011;36153;50.960;6.220;2023-06-14T07:51:46;4.55;;;3.50;;
50267;SDS011;36153;50.960;6.220;2023-06-14T07:54:48;5.75;;;3.88;;
50267;SDS011;36153;50.960;6.220;2023-06-14T07:57:48;5.35;;;3.28;;
50267;SDS011;36153;50.960;6.220;2023-06-14T08:00:49;3.03;;;2.72;;
50267;SDS011;36153;50.960;6.220;2023-06-14T08:03:50;4.60;;;3.08;;
50267;SDS011;36153;50.960;6.220;2023-06-14T08:06:50;5.63;;;4.20;;
50267;SDS011;36153;50.960;6.220;2023-06-14T08:09:50;7.50;;;3.45;;
50267;SDS011;36153;50.960;6.220;2023-06-14T08:12:51;4.40;;;3.80;;
50267;SDS011;36153;50.960;6.220;2023-06-14T08:15:51;6.38;;;3.50;;
50267;SDS011;36153;50.960;6.220;2023-06-14T08:18:52;4.63;;;3.20;;
50267;SDS011;36153;50.960;6.220;2023-06-14T08:21:52;5.05;;;3.63;;
50267;SDS011;36153;50.960;6.220;2023-06-14T08:24:54;5.88;;;3.22;;
50267;SDS011;36153;50.960;6.220;2023-06-14T08:27:54;5.63;;;2.92;;
50267;SDS011;36153;50.960;6.220;2023-06-14T08:30:55;6.07;;;3.40;;
50267;SDS011;36153;50.960;6.220;2023-06-14T08:33:55;5.20;;;2.97;;
50267;SDS011;36153;50.960;6.220;2023-06-14T08:36:56;7.00;;;2.85;;
50267;SDS011;36153;50.960;6.220;2023-06-14T08:39:56;4.32;;;2.78;;
50267;SDS011;36153;50.960;6.220;2023-06-14T08:42:57;5.63;;;2.88;;
50267;SDS011;36153;50.960;6.220;2023-06-14T08:46:02;4.70;;;3.28;;
50267;SDS011;36153;50.960;6.220;2023-06-14T08:49:04;7.95;;;3.10;;
50267;SDS011;36153;50.960;6.220;2023-06-14T08:52:08;6.47;;;3.05;;
50267;SDS011;36153;50.960;6.220;2023-06-14T08:58:11;5.18;;;2.78;;
50267;SDS011;36153;50.960;6.220;2023-06-14T09:01:14;4.63;;;2.80;;
50267;SDS011;36153;50.960;6.220;2023-06-14T09:04:16;3.90;;;2.60;;
50267;SDS011;36153;50.960;6.220;2023-06-14T09:07:16;2.70;;;2.50;;
50267;SDS011;36153;50.960;6.220;2023-06-14T09:10:17;5.60;;;3.35;;
50267;SDS011;36153;50.960;6.220;2023-06-14T09:13:17;5.88;;;2.90;;
50267;SDS011;36153;50.960;6.220;2023-06-14T09:16:18;2.88;;;2.47;;
50267;SDS011;36153;50.960;6.220;2023-06-14T09:19:22;3.67;;;2.75;;
50267;SDS011;36153;50.960;6.220;2023-06-14T09:22:23;4.65;;;2.15;;
50267;SDS011;36153;50.960;6.220;2023-06-14T09:25:23;5.53;;;2.30;;
50267;SDS011;36153;50.960;6.220;2023-06-14T09:28:27;4.68;;;2.58;;
50267;SDS011;36153;50.960;6.220;2023-06-14T09:31:28;6.53;;;2.70;;
50267;SDS011;36153;50.960;6.220;2023-06-14T09:34:32;3.25;;;2.30;;
50267;SDS011;36153;50.960;6.220;2023-06-14T09:37:33;7.03;;;2.88;;
50267;SDS011;36153;50.960;6.220;2023-06-14T09:40:34;2.80;;;2.28;;
50267;SDS011;36153;50.960;6.220;2023-06-14T09:43:38;5.22;;;1.77;;
50267;SDS011;36153;50.960;6.220;2023-06-14T09:46:38;3.15;;;1.63;;
50267;SDS011;36153;50.960;6.220;2023-06-14T09:49:39;3.05;;;1.80;;
50267;SDS011;36153;50.960;6.220;2023-06-14T09:52:39;3.20;;;1.45;;
50267;SDS011;36153;50.960;6.220;2023-06-14T09:55:43;3.38;;;1.67;;
50267;SDS011;36153;50.960;6.220;2023-06-14T09:58:45;4.18;;;1.38;;
50267;SDS011;36153;50.960;6.220;2023-06-14T10:01:46;2.65;;;1.50;;
50267;SDS011;36153;50.960;6.220;2023-06-14T10:05:04;3.03;;;1.40;;
50267;SDS011;36153;50.960;6.220;2023-06-14T10:08:10;2.75;;;1.27;;
50267;SDS011;36153;50.960;6.220;2023-06-14T10:11:14;3.08;;;1.38;;
50267;SDS011;36153;50.960;6.220;2023-06-14T10:14:15;2.92;;;1.70;;
50267;SDS011;36153;50.960;6.220;2023-06-14T10:17:19;2.55;;;1.30;;
50267;SDS011;36153;50.960;6.220;2023-06-14T10:20:30;2.60;;;1.85;;
50267;SDS011;36153;50.960;6.220;2023-06-14T10:23:37;2.85;;;1.52;;
50267;SDS011;36153;50.960;6.220;2023-06-14T10:26:49;2.97;;;1.80;;
50267;SDS011;36153;50.960;6.220;2023-06-14T10:33:03;1.80;;;1.60;;
50267;SDS011;36153;50.960;6.220;2023-06-14T10:39:16;2.75;;;1.55;;
50267;SDS011;36153;50.960;6.220;2023-06-14T10:42:17;2.30;;;1.48;;
50267;SDS011;36153;50.960;6.220;2023-06-14T10:45:19;3.10;;;1.50;;
50267;SDS011;36153;50.960;6.220;2023-06-14T10:48:29;3.83;;;1.70;;
50267;SDS011;36153;50.960;6.220;2023-06-14T10:51:29;1.98;;;1.60;;
50267;SDS011;36153;50.960;6.220;2023-06-14T10:58:12;2.75;;;1.98;;
50267;SDS011;36153;50.960;6.220;2023-06-14T11:01:12;3.15;;;1.52;;
50267;SDS011;36153;50.960;6.220;2023-06-14T11:04:14;4.55;;;1.42;;
50267;SDS011;36153;50.960;6.220;2023-06-14T11:07:32;4.32;;;1.63;;
50267;SDS011;36153;50.960;6.220;2023-06-14T11:10:58;3.15;;;1.80;;
50267;SDS011;36153;50.960;6.220;2023-06-14T11:14:00;2.63;;;1.25;;
50267;SDS011;36153;50.960;6.220;2023-06-14T11:17:02;2.55;;;1.83;;
50267;SDS011;36153;50.960;6.220;2023-06-14T11:20:12;4.47;;;1.70;;
50267;SDS011;36153;50.960;6.220;2023-06-14T11:23:15;2.75;;;1.67;;
50267;SDS011;36153;50.960;6.220;2023-06-14T11:26:16;1.90;;;1.45;;
50267;SDS011;36153;50.960;6.220;2023-06-14T11:29:26;2.15;;;1.60;;
50267;SDS011;36153;50.960;6.220;2023-06-14T11:32:30;4.15;;;2.13;;
50267;SDS011;36153;50.960;6.220;2023-06-14T11:35:31;2.40;;;1.48;;
50267;SDS011;36153;50.960;6.220;2023-06-14T11:38:36;1.85;;;1.30;;
50267;SDS011;36153;50.960;6.220;2023-06-14T11:41:43;2.03;;;1.80;;
50267;SDS011;36153;50.960;6.220;2023-06-14T11:44:49;1.77;;;1.50;;
50267;SDS011;36153;50.960;6.220;2023-06-14T11:47:50;3.90;;;2.13;;
50267;SDS011;36153;50.960;6.220;2023-06-14T11:50:50;2.17;;;1.50;;
50267;SDS011;36153;50.960;6.220;2023-06-14T11:53:51;4.55;;;1.60;;
50267;SDS011;36153;50.960;6.220;2023-06-14T11:56:52;2.45;;;1.60;;
50267;SDS011;36153;50.960;6.220;2023-06-14T11:59:52;3.45;;;1.52;;
50267;SDS011;36153;50.960;6.220;2023-06-14T12:02:55;1.38;;;1.25;;
50267;SDS011;36153;50.960;6.220;2023-06-14T12:06:06;3.15;;;1.80;;
50267;SDS011;36153;50.960;6.220;2023-06-14T12:09:08;2.83;;;1.80;;
50267;SDS011;36153;50.960;6.220;2023-06-14T12:12:13;4.00;;;1.50;;
50267;SDS011;36153;50.960;6.220;2023-06-14T12:15:13;3.03;;;1.77;;
50267;SDS011;36153;50.960;6.220;2023-06-14T12:18:13;2.17;;;1.98;;
50267;SDS011;36153;50.960;6.220;2023-06-14T12:21:14;3.58;;;1.55;;
50267;SDS011;36153;50.960;6.220;2023-06-14T12:24:15;5.25;;;2.20;;
50267;SDS011;36153;50.960;6.220;2023-06-14T12:27:15;3.75;;;1.55;;
50267;SDS011;36153;50.960;6.220;2023-06-14T12:30:18;6.72;;;2.03;;
50267;SDS011;36153;50.960;6.220;2023-06-14T12:33:19;3.83;;;1.42;;
50267;SDS011;36153;50.960;6.220;2023-06-14T12:36:19;3.25;;;1.42;;
50267;SDS011;36153;50.960;6.220;2023-06-14T12:39:20;3.88;;;1.17;;
50267;SDS011;36153;50.960;6.220;2023-06-14T12:42:21;3.15;;;1.60;;
50267;SDS011;36153;50.960;6.220;2023-06-14T12:45:21;5.20;;;1.45;;
50267;SDS011;36153;50.960;6.220;2023-06-14T12:48:23;3.15;;;1.33;;
50267;SDS011;36153;50.960;6.220;2023-06-14T12:51:23;2.85;;;1.73;;
50267;SDS011;36153;50.960;6.220;2023-06-14T12:54:25;3.15;;;1.30;;
50267;SDS011;36153;50.960;6.220;2023-06-14T12:57:29;4.28;;;1.92;;
50267;SDS011;36153;50.960;6.220;2023-06-14T13:00:29;2.58;;;1.70;;
50267;SDS011;36153;50.960;6.220;2023-06-14T13:03:30;2.60;;;1.85;;
50267;SDS011;36153;50.960;6.220;2023-06-14T13:06:30;2.10;;;1.77;;
50267;SDS011;36153;50.960;6.220;2023-06-14T13:09:31;4.13;;;1.70;;
50267;SDS011;36153;50.960;6.220;2023-06-14T13:12:32;2.92;;;1.60;;
50267;SDS011;36153;50.960;6.220;2023-06-14T13:15:32;3.17;;;1.95;;
50267;SDS011;36153;50.960;6.220;2023-06-14T13:18:33;3.95;;;1.98;;
50267;SDS011;36153;50.960;6.220;2023-06-14T13:21:33;2.15;;;1.55;;
50267;SDS011;36153;50.960;6.220;2023-06-14T13:24:34;2.65;;;1.70;;
50267;SDS011;36153;50.960;6.220;2023-06-14T13:27:34;3.78;;;2.35;;
50267;SDS011;36153;50.960;6.220;2023-06-14T13:30:34;2.58;;;1.98;;
50267;SDS011;36153;50.960;6.220;2023-06-14T13:33:35;3.45;;;2.00;;
50267;SDS011;36153;50.960;6.220;2023-06-14T13:36:35;6.45;;;2.50;;
50267;SDS011;36153;50.960;6.220;2023-06-14T13:39:36;3.40;;;2.22;;
50267;SDS011;36153;50.960;6.220;2023-06-14T13:42:37;3.75;;;2.28;;
50267;SDS011;36153;50.960;6.220;2023-06-14T13:45:37;2.58;;;2.30;;
50267;SDS011;36153;50.960;6.220;2023-06-14T13:48:38;7.65;;;2.53;;
50267;SDS011;36153;50.960;6.220;2023-06-14T13:51:38;3.13;;;2.30;;
50267;SDS011;36153;50.960;6.220;2023-06-14T13:54:38;2.42;;;2.22;;
50267;SDS011;36153;50.960;6.220;2023-06-14T13:57:39;3.42;;;2.15;;
50267;SDS011;36153;50.960;6.220;2023-06-14T14:00:40;2.42;;;2.20;;
50267;SDS011;36153;50.960;6.220;2023-06-14T14:03:40;3.55;;;2.00;;
50267;SDS011;36153;50.960;6.220;2023-06-14T14:06:41;2.72;;;1.95;;
50267;SDS011;36153;50.960;6.220;2023-06-14T14:09:41;2.30;;;2.10;;
50267;SDS011;36153;50.960;6.220;2023-06-14T14:12:43;5.03;;;2.05;;
50267;SDS011;36153;50.960;6.220;2023-06-14T14:15:43;4.68;;;2.03;;
50267;SDS011;36153;50.960;6.220;2023-06-14T14:18:43;3.35;;;2.15;;
50267;SDS011;36153;50.960;6.220;2023-06-14T14:21:44;7.07;;;2.50;;
50267;SDS011;36153;50.960;6.220;2023-06-14T14:24:45;3.00;;;1.67;;
50267;SDS011;36153;50.960;6.220;2023-06-14T14:27:45;3.35;;;2.22;;
50267;SDS011;36153;50.960;6.220;2023-06-14T14:30:46;5.78;;;2.55;;
50267;SDS011;36153;50.960;6.220;2023-06-14T14:33:47;3.33;;;2.10;;
50267;SDS011;36153;50.960;6.220;2023-06-14T14:36:47;2.75;;;1.75;;
50267;SDS011;36153;50.960;6.220;2023-06-14T14:39:48;4.18;;;1.92;;
50267;SDS011;36153;50.960;6.220;2023-06-14T14:42:48;1.85;;;1.40;;
50267;SDS011;36153;50.960;6.220;2023-06-14T14:45:48;2.67;;;1.90;;
50267;SDS011;36153;50.960;6.220;2023-06-14T14:48:49;1.90;;;1.80;;
50267;SDS011;36153;50.960;6.220;2023-06-14T14:51:49;3.00;;;1.90;;
50267;SDS011;36153;50.960;6.220;2023-06-14T14:54:49;4.20;;;1.52;;
50267;SDS011;36153;50.960;6.220;2023-06-14T14:57:50;1.98;;;1.77;;
50267;SDS011;36153;50.960;6.220;2023-06-14T15:00:50;4.22;;;1.90;;
50267;SDS011;36153;50.960;6.220;2023-06-14T15:03:50;2.45;;;1.60;;
50267;SDS011;36153;50.960;6.220;2023-06-14T15:06:51;4.15;;;1.63;;
50267;SDS011;36153;50.960;6.220;2023-06-14T15:09:51;3.00;;;1.95;;
50267;SDS011;36153;50.960;6.220;2023-06-14T15:12:51;2.25;;;1.70;;
50267;SDS011;36153;50.960;6.220;2023-06-14T15:15:52;2.00;;;1.80;;
50267;SDS011;36153;50.960;6.220;2023-06-14T15:18:52;2.22;;;1.50;;
50267;SDS011;36153;50.960;6.220;2023-06-14T15:21:53;2.05;;;1.58;;
50267;SDS011;36153;50.960;6.220;2023-06-14T15:24:53;2.33;;;1.52;;
50267;SDS011;36153;50.960;6.220;2023-06-14T15:27:54;2.45;;;1.73;;
50267;SDS011;36153;50.960;6.220;2023-06-14T15:30:58;2.45;;;1.17;;
50267;SDS011;36153;50.960;6.220;2023-06-14T15:33:59;1.85;;;1.30;;
50267;SDS011;36153;50.960;6.220;2023-06-14T15:36:59;2.28;;;1.70;;
50267;SDS011;36153;50.960;6.220;2023-06-14T15:40:00;2.47;;;1.70;;
50267;SDS011;36153;50.960;6.220;2023-06-14T15:43:00;2.47;;;1.98;;
50267;SDS011;36153;50.960;6.220;2023-06-14T15:46:00;3.17;;;1.63;;
50267;SDS011;36153;50.960;6.220;2023-06-14T15:49:01;4.10;;;1.90;;
50267;SDS011;36153;50.960;6.220;2023-06-14T15:52:02;3.10;;;1.70;;
50267;SDS011;36153;50.960;6.220;2023-06-14T15:55:03;1.65;;;1.42;;
50267;SDS011;36153;50.960;6.220;2023-06-14T15:58:03;2.08;;;1.27;;
50267;SDS011;36153;50.960;6.220;2023-06-14T16:01:04;2.85;;;1.38;;
50267;SDS011;36153;50.960;6.220;2023-06-14T16:04:04;1.92;;;1.55;;
50267;SDS011;36153;50.960;6.220;2023-06-14T16:07:05;5.03;;;1.65;;
50267;SDS011;36153;50.960;6.220;2023-06-14T16:10:05;1.95;;;1.50;;
50267;SDS011;36153;50.960;6.220;2023-06-14T16:13:05;4.05;;;1.98;;
50267;SDS011;36153;50.960;6.220;2023-06-14T16:16:06;3.83;;;1.73;;
50267;SDS011;36153;50.960;6.220;2023-06-14T16:19:06;2.35;;;2.15;;
50267;SDS011;36153;50.960;6.220;2023-06-14T16:22:08;4.20;;;1.77;;
50267;SDS011;36153;50.960;6.220;2023-06-14T16:25:08;5.60;;;1.85;;
50267;SDS011;36153;50.960;6.220;2023-06-14T16:28:08;3.03;;;2.38;;
50267;SDS011;36153;50.960;6.220;2023-06-14T16:31:12;3.00;;;1.83;;
50267;SDS011;36153;50.960;6.220;2023-06-14T16:34:17;2.92;;;1.90;;
50267;SDS011;36153;50.960;6.220;2023-06-14T16:37:17;1.88;;;1.50;;
50267;SDS011;36153;50.960;6.220;2023-06-14T16:40:18;3.42;;;1.90;;
50267;SDS011;36153;50.960;6.220;2023-06-14T16:43:18;1.90;;;1.80;;
50267;SDS011;36153;50.960;6.220;2023-06-14T16:46:28;2.67;;;2.20;;
50267;SDS011;36153;50.960;6.220;2023-06-14T16:49:30;3.20;;;2.10;;
50267;SDS011;36153;50.960;6.220;2023-06-14T16:52:33;2.88;;;2.08;;
50267;SDS011;36153;50.960;6.220;2023-06-14T16:55:34;4.70;;;2.60;;
50267;SDS011;36153;50.960;6.220;2023-06-14T16:58:36;2.60;;;2.33;;
50267;SDS011;36153;50.960;6.220;2023-06-14T17:01:36;2.85;;;2.10;;
50267;SDS011;36153;50.960;6.220;2023-06-14T17:04:37;2.88;;;2.20;;
50267;SDS011;36153;50.960;6.220;2023-06-14T17:07:38;3.10;;;2.20;;
50267;SDS011;36153;50.960;6.220;2023-06-14T17:10:38;2.78;;;2.03;;
50267;SDS011;36153;50.960;6.220;2023-06-14T17:13:39;3.70;;;2.30;;
50267;SDS011;36153;50.960;6.220;2023-06-14T17:16:39;3.08;;;2.15;;
50267;SDS011;36153;50.960;6.220;2023-06-14T17:19:39;2.17;;;2.03;;
50267;SDS011;36153;50.960;6.220;2023-06-14T17:22:40;3.95;;;2.00;;
50267;SDS011;36153;50.960;6.220;2023-06-14T17:25:41;2.70;;;2.15;;
50267;SDS011;36153;50.960;6.220;2023-06-14T17:28:43;4.47;;;2.35;;
50267;SDS011;36153;50.960;6.220;2023-06-14T17:31:44;2.67;;;2.13;;
50267;SDS011;36153;50.960;6.220;2023-06-14T17:34:44;2.85;;;2.33;;
50267;SDS011;36153;50.960;6.220;2023-06-14T17:37:45;2.33;;;1.83;;
50267;SDS011;36153;50.960;6.220;2023-06-14T17:40:45;2.42;;;2.05;;
50267;SDS011;36153;50.960;6.220;2023-06-14T17:43:45;3.30;;;2.20;;
50267;SDS011;36153;50.960;6.220;2023-06-14T17:46:46;2.70;;;2.20;;
50267;SDS011;36153;50.960;6.220;2023-06-14T17:49:46;2.20;;;2.00;;
50267;SDS011;36153;50.960;6.220;2023-06-14T17:52:51;4.30;;;2.50;;
50267;SDS011;36153;50.960;6.220;2023-06-14T17:55:51;3.78;;;2.15;;
50267;SDS011;36153;50.960;6.220;2023-06-14T17:58:51;2.17;;;2.00;;
50267;SDS011;36153;50.960;6.220;2023-06-14T18:01:53;2.67;;;2.10;;
50267;SDS011;36153;50.960;6.220;2023-06-14T18:04:53;5.80;;;2.28;;
50267;SDS011;36153;50.960;6.220;2023-06-14T18:07:54;2.20;;;2.00;;
50267;SDS011;36153;50.960;6.220;2023-06-14T18:10:54;4.55;;;2.05;;
50267;SDS011;36153;50.960;6.220;2023-06-14T18:13:54;2.47;;;2.13;;
50267;SDS011;36153;50.960;6.220;2023-06-14T18:16:55;3.92;;;2.10;;
50267;SDS011;36153;50.960;6.220;2023-06-14T18:19:55;2.60;;;2.30;;
50267;SDS011;36153;50.960;6.220;2023-06-14T18:22:56;4.28;;;2.10;;
50267;SDS011;36153;50.960;6.220;2023-06-14T18:25:56;4.55;;;2.20;;
50267;SDS011;36153;50.960;6.220;2023-06-14T18:28:56;2.55;;;2.10;;
50267;SDS011;36153;50.960;6.220;2023-06-14T18:31:57;2.25;;;1.90;;